createdAt,value
2023-05-21T00:00:21.855Z,100885.50
2023-05-21T00:02:49.473Z,100894.50
2023-05-21T00:05:18.400Z,100810.69
2023-05-21T00:08:05.486Z,100879.69
2023-05-21T00:11:09.732Z,100877.13
2023-05-21T00:14:10.402Z,100885.22
2023-05-21T00:16:51.706Z,100887.91
2023-05-21T00:19:18.785Z,100824.16
2023-05-21T00:21:48.733Z,100857.81
2023-05-21T00:24:15.883Z,100863.19
2023-05-21T00:26:43.089Z,100838.31
2023-05-21T00:29:10.726Z,100849.88
2023-05-21T00:31:37.957Z,100778.13
2023-05-21T00:34:05.101Z,100812.81
2023-05-21T00:36:34.775Z,100813.63
2023-05-21T00:39:02.607Z,100859.47
2023-05-21T00:41:30.350Z,100807.19
2023-05-21T00:44:00.411Z,100841.88
2023-05-21T00:46:30.394Z,100848.19
2023-05-21T00:48:58.521Z,100817.34
2023-05-21T00:51:45.464Z,100814.63
2023-05-21T00:54:46.469Z,100802.91
2023-05-21T00:57:30.013Z,100854.38
2023-05-21T00:59:58.201Z,100837.50
2023-05-21T01:02:26.335Z,100836.50
2023-05-21T01:05:13.438Z,100878.06
2023-05-21T01:08:09.454Z,100748.00
2023-05-21T01:10:36.482Z,100755.75
2023-05-21T01:13:03.627Z,100815.34
2023-05-21T01:15:31.654Z,100858.94
2023-05-21T01:17:59.000Z,100831.44
2023-05-21T01:20:27.375Z,100816.06
2023-05-21T01:22:56.545Z,100806.41
2023-05-21T01:25:25.101Z,100849.97
2023-05-21T01:27:52.659Z,100792.59
2023-05-21T01:30:22.697Z,100777.53
2023-05-21T01:33:02.565Z,100842.03
2023-05-21T01:35:35.265Z,100846.34
2023-05-21T01:38:17.786Z,100781.53
2023-05-21T01:40:59.395Z,100826.84
2023-05-21T01:43:29.568Z,100826.03
2023-05-21T01:45:59.093Z,100819.78
2023-05-21T01:48:29.458Z,100769.31
2023-05-21T01:51:19.448Z,100768.16
2023-05-21T01:54:20.480Z,100763.28
2023-05-21T01:57:07.412Z,100791.75
2023-05-21T01:59:35.076Z,100758.59
2023-05-21T02:02:02.403Z,100813.69
2023-05-21T02:04:50.550Z,100772.88
2023-05-21T02:07:33.852Z,100797.75
2023-05-21T02:10:01.854Z,100680.00
2023-05-21T02:12:49.974Z,100749.84
2023-05-21T02:15:30.757Z,100812.03
2023-05-21T02:17:58.617Z,100803.00
2023-05-21T02:20:25.993Z,100693.53
2023-05-21T02:22:53.884Z,100803.47
2023-05-21T02:25:21.040Z,100769.00
2023-05-21T02:27:53.716Z,100817.75
2023-05-21T02:30:21.062Z,100730.16
2023-05-21T02:32:50.077Z,100812.66
2023-05-21T02:35:17.451Z,100756.66
2023-05-21T02:37:44.828Z,100722.88
2023-05-21T02:40:12.364Z,100808.78
2023-05-21T02:42:41.550Z,100812.97
2023-05-21T02:45:13.632Z,100799.78
2023-05-21T02:47:43.044Z,100809.66
2023-05-21T02:50:10.365Z,100789.25
2023-05-21T02:52:55.572Z,100794.91
2023-05-21T02:55:30.691Z,100761.88
2023-05-21T02:57:58.059Z,100715.97
2023-05-21T03:04:06.521Z,100770.81
2023-05-21T03:07:02.298Z,100781.25
2023-05-21T03:09:43.573Z,100753.97
2023-05-21T03:12:11.844Z,100747.78
2023-05-21T03:14:39.183Z,100734.41
2023-05-21T03:17:14.239Z,100795.63
2023-05-21T03:19:49.406Z,100586.38
2023-05-21T03:22:32.944Z,100712.09
2023-05-21T03:25:07.518Z,100758.25
2023-05-21T03:27:47.228Z,100618.28
2023-05-21T03:30:39.755Z,100790.72
2023-05-21T03:33:27.584Z,100780.34
2023-05-21T03:35:55.617Z,100738.69
2023-05-21T03:38:26.863Z,100735.19
2023-05-21T03:40:58.235Z,100662.31
2023-05-21T03:43:28.339Z,100675.75
2023-05-21T03:45:56.518Z,100752.88
2023-05-21T03:48:44.408Z,100748.13
2023-05-21T03:51:27.817Z,100757.31
2023-05-21T03:54:08.445Z,100742.28
2023-05-21T03:56:40.530Z,100762.56
2023-05-21T03:59:27.862Z,100789.16
2023-05-21T04:02:08.751Z,100801.47
2023-05-21T04:04:40.972Z,100782.16
2023-05-21T04:07:19.643Z,100721.34
2023-05-21T04:09:58.384Z,100801.88
2023-05-21T04:12:28.472Z,100708.81
2023-05-21T04:15:02.899Z,100584.13
2023-05-21T04:17:35.849Z,100806.81
2023-05-21T04:20:09.772Z,100706.66
2023-05-21T04:22:44.683Z,100788.41
2023-05-21T04:25:12.251Z,100782.16
2023-05-21T04:27:39.653Z,100772.44
2023-05-21T04:30:09.394Z,100808.81
2023-05-21T04:32:38.748Z,100779.53
2023-05-21T04:35:10.820Z,100721.91
2023-05-21T04:37:50.251Z,100728.94
2023-05-21T04:40:23.955Z,100759.16
2023-05-21T04:43:07.718Z,100811.78
2023-05-21T04:46:00.956Z,100734.50
2023-05-21T04:48:28.906Z,100743.69
2023-05-21T04:51:15.541Z,100794.81
2023-05-21T04:54:16.689Z,100826.38
2023-05-21T04:57:17.714Z,100822.81
2023-05-21T05:00:19.730Z,100786.53
2023-05-21T05:03:00.697Z,100782.69
2023-05-21T05:05:28.311Z,100820.81
2023-05-21T05:07:56.439Z,100733.41
2023-05-21T05:10:45.415Z,100748.63
2023-05-21T05:13:19.686Z,100571.75
2023-05-21T05:16:05.982Z,100817.06
2023-05-21T05:18:40.065Z,100790.56
2023-05-21T05:21:18.063Z,100806.72
2023-05-21T05:23:48.690Z,100810.47
2023-05-21T05:26:32.698Z,100612.13
2023-05-21T05:29:16.747Z,100676.66
2023-05-21T05:31:46.440Z,100761.44
2023-05-21T05:34:24.878Z,100792.59
2023-05-21T05:37:02.092Z,100772.53
2023-05-21T05:39:32.559Z,100778.97
2023-05-21T05:42:00.885Z,100813.53
2023-05-21T05:44:33.930Z,100765.72
2023-05-21T05:47:13.944Z,100780.84
2023-05-21T05:49:42.215Z,100797.66
2023-05-21T05:52:34.605Z,100805.72
2023-05-21T05:55:35.787Z,100803.19
2023-05-21T05:58:36.613Z,100798.66
2023-05-21T06:01:19.873Z,100765.63
2023-05-21T06:03:50.259Z,100787.22
2023-05-21T06:06:26.063Z,100803.31
2023-05-21T06:09:44.263Z,100663.72
2023-05-21T06:12:33.900Z,100786.72
2023-05-21T06:15:04.320Z,100793.03
2023-05-21T06:17:44.919Z,100780.78
2023-05-21T06:20:14.095Z,100799.28
2023-05-21T06:22:43.568Z,100695.78
2023-05-21T06:25:16.914Z,100735.69
2023-05-21T06:27:44.350Z,100773.75
2023-05-21T06:30:19.179Z,100763.06
2023-05-21T06:33:12.806Z,100763.94
2023-05-21T06:36:13.654Z,100778.28
2023-05-21T06:39:13.695Z,100713.69
2023-05-21T06:42:18.702Z,100721.09
2023-05-21T06:45:28.380Z,100730.09
2023-05-21T06:48:26.757Z,100815.38
2023-05-21T06:51:27.083Z,100798.69
2023-05-21T06:54:58.872Z,100611.00
2023-05-21T06:58:37.705Z,100713.38
2023-05-21T07:01:51.257Z,100755.56
2023-05-21T07:04:24.058Z,100807.88
2023-05-21T07:07:04.683Z,100743.19
2023-05-21T07:09:39.238Z,100714.78
2023-05-21T07:12:15.155Z,100728.13
2023-05-21T07:14:53.373Z,100717.28
2023-05-21T07:17:48.584Z,100785.56
2023-05-21T07:20:21.588Z,100588.97
2023-05-21T07:22:59.618Z,100828.97
2023-05-21T07:25:27.838Z,100834.25
2023-05-21T07:27:58.556Z,100606.78
2023-05-21T07:30:39.178Z,100721.75
2023-05-21T07:34:05.714Z,100842.25
2023-05-21T07:36:35.813Z,100831.00
2023-05-21T07:39:12.885Z,100713.47
2023-05-21T07:41:55.797Z,100832.97
2023-05-21T07:44:48.318Z,100821.47
2023-05-21T07:47:21.510Z,100842.47
2023-05-21T07:50:31.000Z,100793.56
2023-05-21T07:53:44.959Z,100833.97
2023-05-21T07:56:43.205Z,100696.06
2023-05-21T07:59:30.416Z,100706.63
2023-05-21T08:02:05.486Z,100748.00
2023-05-21T08:04:33.384Z,100829.38
2023-05-21T08:07:08.788Z,100625.38
2023-05-21T08:10:19.119Z,100707.94
2023-05-21T08:13:54.104Z,100641.31
2023-05-21T08:16:49.864Z,100678.88
2023-05-21T08:19:22.359Z,100635.41
2023-05-21T08:22:01.873Z,100727.38
2023-05-21T08:24:35.271Z,100796.34
2023-05-21T08:27:11.932Z,100825.44
2023-05-21T08:29:50.816Z,100832.59
2023-05-21T08:32:43.192Z,100753.50
2023-05-21T08:35:49.202Z,100784.75
2023-05-21T08:38:41.999Z,100830.84
2023-05-21T08:41:26.166Z,100773.25
2023-05-21T08:44:02.175Z,100618.03
2023-05-21T08:46:49.015Z,100800.84
2023-05-21T08:49:55.718Z,100766.38
2023-05-21T08:53:38.170Z,100810.47
2023-05-21T08:56:38.859Z,100754.91
2023-05-21T08:59:44.319Z,100811.44
2023-05-21T09:02:37.156Z,100763.72
2023-05-21T09:05:28.821Z,100804.28
2023-05-21T09:08:47.791Z,100813.88
2023-05-21T09:11:37.903Z,100843.09
2023-05-21T09:14:10.979Z,100820.81
2023-05-21T09:17:31.850Z,100806.06
2023-05-21T09:20:52.931Z,100839.75
2023-05-21T09:23:34.843Z,100814.81
2023-05-21T09:26:14.742Z,100841.88
2023-05-21T09:31:33.175Z,100825.19
2023-05-21T09:34:09.111Z,100750.94
2023-05-21T09:37:03.740Z,100837.00
2023-05-21T09:40:06.807Z,100814.28
2023-05-21T09:42:49.724Z,100812.88
2023-05-21T09:45:24.068Z,100840.44
2023-05-21T09:48:12.785Z,100836.00
2023-05-21T09:51:33.780Z,100829.50
2023-05-21T09:54:14.326Z,100783.81
2023-05-21T09:56:41.893Z,100822.50
2023-05-21T09:59:09.265Z,100774.28
2023-05-21T10:01:37.641Z,100816.09
2023-05-21T10:04:08.071Z,100835.38
2023-05-21T10:06:47.932Z,100820.53
2023-05-21T10:09:18.130Z,100810.50
2023-05-21T10:11:45.776Z,100839.00
2023-05-21T10:14:19.761Z,100740.16
2023-05-21T10:16:48.170Z,100800.28
2023-05-21T10:19:18.205Z,100830.97
2023-05-21T10:21:46.201Z,100827.75
2023-05-21T10:24:14.140Z,100834.38
2023-05-21T10:26:41.582Z,100833.00
2023-05-21T10:29:09.288Z,100771.84
2023-05-21T10:31:39.140Z,100788.25
2023-05-21T10:34:06.595Z,100797.56
2023-05-21T10:36:36.622Z,100793.16
2023-05-21T10:39:03.973Z,100821.78
2023-05-21T10:41:53.948Z,100717.91
2023-05-21T10:45:07.817Z,100816.91
2023-05-21T10:48:26.774Z,100815.06
2023-05-21T10:51:35.816Z,100795.78
2023-05-21T10:54:41.389Z,100814.53
2023-05-21T10:57:27.541Z,100817.53
2023-05-21T10:59:55.255Z,100813.28
2023-05-21T11:02:27.045Z,100804.69
2023-05-21T11:05:02.293Z,100816.25
2023-05-21T11:08:02.677Z,100718.56
2023-05-21T11:10:30.822Z,100756.00
2023-05-21T11:13:17.728Z,100759.34
2023-05-21T11:16:14.880Z,100796.28
2023-05-21T11:18:57.589Z,100787.25
2023-05-21T11:21:28.638Z,100775.63
2023-05-21T11:23:59.608Z,100796.88
2023-05-21T11:26:30.101Z,100777.88
2023-05-21T11:29:03.426Z,100790.78
2023-05-21T11:31:38.402Z,100795.75
2023-05-21T11:34:35.844Z,100785.72
2023-05-21T11:37:38.982Z,100767.28
2023-05-21T11:40:41.863Z,100748.84
2023-05-21T11:43:54.104Z,100748.06
2023-05-21T11:46:55.969Z,100773.50
2023-05-21T11:50:06.791Z,100788.75
2023-05-21T11:52:48.701Z,100752.56
2023-05-21T11:55:15.991Z,100779.97
2023-05-21T11:57:57.878Z,100743.38
2023-05-21T12:00:40.691Z,100782.00
2023-05-21T12:03:21.497Z,100722.78
2023-05-21T12:06:31.063Z,100770.44
2023-05-21T12:09:10.388Z,100636.25
2023-05-21T12:11:43.048Z,100702.94
2023-05-21T12:14:39.136Z,100670.72
2023-05-21T12:17:30.334Z,100658.63
2023-05-21T12:20:01.225Z,100771.91
2023-05-21T12:22:35.706Z,100716.31
2023-05-21T12:25:10.714Z,100648.59
2023-05-21T12:28:04.230Z,100607.88
2023-05-21T12:30:42.157Z,100658.81
2023-05-21T12:33:21.198Z,100778.66
2023-05-21T12:36:44.625Z,100688.22
2023-05-21T12:39:50.525Z,100575.41
2023-05-21T12:42:59.515Z,100678.09
2023-05-21T12:45:31.686Z,100588.13
2023-05-21T12:48:14.105Z,100766.50
2023-05-21T12:50:43.965Z,100624.84
2023-05-21T12:56:00.615Z,100722.16
2023-05-21T12:58:52.056Z,100656.56
2023-05-21T13:01:50.719Z,100680.94
2023-05-21T13:05:23.114Z,100646.50
2023-05-21T13:08:32.036Z,100674.56
2023-05-21T13:11:14.493Z,100749.00
2023-05-21T13:13:45.658Z,100666.81
2023-05-21T13:16:32.119Z,100674.09
2023-05-21T13:19:05.100Z,100737.22
2023-05-21T13:21:49.841Z,100709.47
2023-05-21T13:24:31.260Z,100628.34
2023-05-21T13:27:01.160Z,100718.47
2023-05-21T13:30:35.465Z,100747.41
2023-05-21T13:33:26.172Z,100731.28
2023-05-21T13:36:16.991Z,100643.28
2023-05-21T13:39:07.389Z,100667.34
2023-05-21T13:48:09.830Z,100687.53
2023-05-21T13:50:58.427Z,100694.06
2023-05-21T13:53:37.988Z,100623.09
2023-05-21T13:59:04.890Z,100723.22
2023-05-21T14:08:20.581Z,100637.16
2023-05-21T14:14:12.371Z,100650.94
2023-05-21T14:16:48.648Z,100645.03
2023-05-21T14:19:33.978Z,100518.75
2023-05-21T14:22:25.231Z,100701.34
2023-05-21T14:25:01.644Z,100690.22
2023-05-21T14:27:51.512Z,100525.72
2023-05-21T14:31:00.929Z,100594.31
2023-05-21T14:34:15.732Z,100660.03
2023-05-21T14:40:50.073Z,100488.03
2023-05-21T14:43:30.802Z,100589.81
2023-05-21T14:46:13.014Z,100580.63
2023-05-21T14:48:59.372Z,100599.00
2023-05-21T14:51:44.849Z,100693.84
2023-05-21T14:54:19.901Z,100526.69
2023-05-21T14:57:20.304Z,100490.91
2023-05-21T14:59:54.626Z,100640.97
2023-05-21T15:02:32.379Z,100597.09
2023-05-21T15:05:37.694Z,100685.75
2023-05-21T15:09:23.624Z,100587.56
2023-05-21T15:12:10.081Z,100622.00
2023-05-21T15:15:18.467Z,100523.81
2023-05-21T15:18:05.175Z,100594.47
2023-05-21T15:21:39.810Z,100519.78
2023-05-21T15:24:32.075Z,100537.78
2023-05-21T15:27:52.167Z,100594.91
2023-05-21T15:30:52.077Z,100582.88
2023-05-21T15:33:51.320Z,100553.88
2023-05-21T15:37:07.141Z,100605.84
2023-05-21T15:40:17.547Z,100630.19
2023-05-21T15:43:31.763Z,100627.41
2023-05-21T15:47:21.510Z,100692.69
2023-05-21T15:50:02.125Z,100666.19
2023-05-21T15:52:32.632Z,100685.97
2023-05-21T15:55:40.798Z,100624.41
2023-05-21T16:02:36.000Z,100578.94
2023-05-21T16:06:10.944Z,100577.66
2023-05-21T16:11:58.799Z,100639.22
2023-05-21T16:18:56.133Z,100558.41
2023-05-21T16:22:02.411Z,100495.78
2023-05-21T16:25:34.238Z,100671.03
2023-05-21T16:28:51.315Z,100668.69
2023-05-21T16:32:20.725Z,100481.03
2023-05-21T16:35:31.937Z,100680.28
2023-05-21T16:38:22.458Z,100608.25
2023-05-21T16:41:14.134Z,100582.06
2023-05-21T16:45:07.754Z,100665.44
2023-05-21T16:48:23.817Z,100608.66
2023-05-21T16:51:40.303Z,100499.25
2023-05-21T16:54:24.327Z,100667.03
2023-05-21T16:57:17.653Z,100546.59
2023-05-21T17:00:54.507Z,100663.66
2023-05-21T17:04:13.992Z,100665.88
2023-05-21T17:07:38.638Z,100502.47
2023-05-21T17:10:53.508Z,100565.47
2023-05-21T17:14:00.170Z,100452.59
2023-05-21T17:16:44.424Z,100637.25
2023-05-21T17:19:20.124Z,100637.31
2023-05-21T17:22:01.924Z,100628.50
2023-05-21T17:25:02.378Z,100527.28
2023-05-21T17:28:12.400Z,100535.88
2023-05-21T17:31:33.235Z,100629.22
2023-05-21T17:34:16.264Z,100649.78
2023-05-21T17:37:05.472Z,100653.19
2023-05-21T17:40:02.865Z,100667.44
2023-05-21T17:42:52.583Z,100637.56
2023-05-21T17:46:09.068Z,100639.72
2023-05-21T17:49:02.095Z,100544.38
2023-05-21T17:51:31.554Z,100677.34
2023-05-21T17:54:21.704Z,100563.78
2023-05-21T17:57:02.018Z,100642.34
2023-05-21T17:59:43.702Z,100678.72
2023-05-21T18:02:27.616Z,100601.34
2023-05-21T18:05:26.280Z,100509.03
2023-05-21T18:08:43.562Z,100623.41
2023-05-21T18:14:32.300Z,100485.09
2023-05-21T18:17:23.870Z,100579.28
2023-05-21T18:20:18.616Z,100619.22
2023-05-21T18:23:02.183Z,100652.03
2023-05-21T18:25:34.250Z,100622.28
2023-05-21T18:28:48.212Z,100573.28
2023-05-21T18:32:01.805Z,100615.81
2023-05-21T18:35:27.267Z,100613.28
2023-05-21T18:38:35.738Z,100703.53
2023-05-21T18:41:34.912Z,100587.41
2023-05-21T18:44:22.953Z,100665.06
2023-05-21T18:47:10.595Z,100670.44
2023-05-21T18:50:19.745Z,100713.72
2023-05-21T18:53:03.582Z,100669.72
2023-05-21T18:55:52.628Z,100586.91
2023-05-21T18:58:32.048Z,100622.25
2023-05-21T19:01:11.159Z,100657.53
2023-05-21T19:03:52.106Z,100729.03
2023-05-21T19:06:25.729Z,100707.91
2023-05-21T19:09:15.722Z,100673.56
2023-05-21T19:12:17.032Z,100727.38
2023-05-21T19:15:09.508Z,100695.69
2023-05-21T19:21:52.381Z,100752.22
2023-05-21T19:25:07.643Z,100649.84
2023-05-21T19:28:21.581Z,100546.63
2023-05-21T19:31:17.816Z,100655.13
2023-05-21T19:34:00.906Z,100755.69
2023-05-21T19:37:13.611Z,100715.16
2023-05-21T19:40:32.523Z,100761.91
2023-05-21T19:43:47.432Z,100608.34
2023-05-21T19:47:13.798Z,100734.47
2023-05-21T19:59:29.326Z,100790.97
2023-05-21T20:02:42.713Z,100705.38
2023-05-21T20:05:40.337Z,100686.88
2023-05-21T20:08:22.677Z,100708.09
2023-05-21T20:11:17.899Z,100806.13
2023-05-21T20:14:06.462Z,100716.06
2023-05-21T20:22:04.733Z,100801.75
2023-05-21T20:25:48.499Z,100696.66
2023-05-21T20:28:35.135Z,100708.13
2023-05-21T20:38:07.658Z,100679.84
2023-05-21T20:41:24.809Z,100671.91
2023-05-21T20:44:32.767Z,100697.56
2023-05-21T20:47:21.174Z,100797.31
2023-05-21T20:50:28.811Z,100717.84
2023-05-21T20:56:46.718Z,100766.41
2023-05-21T20:59:35.621Z,100690.47
2023-05-21T21:05:05.099Z,100712.53
2023-05-21T21:07:50.951Z,100701.06
2023-05-21T21:10:44.614Z,100630.44
2023-05-21T21:13:59.630Z,100692.25
2023-05-21T21:17:22.931Z,100697.53
2023-05-21T21:21:13.808Z,100827.34
2023-05-21T21:24:33.048Z,100716.06
2023-05-21T21:27:57.210Z,100700.19
2023-05-21T21:30:53.999Z,100643.66
2023-05-21T21:33:40.103Z,100705.47
2023-05-21T21:36:28.413Z,100749.63
2023-05-21T21:39:29.722Z,100814.97
2023-05-21T21:42:44.650Z,100825.56
2023-05-21T21:45:38.057Z,100826.44
2023-05-21T21:48:21.918Z,100633.88
2023-05-21T21:51:02.384Z,100700.94
2023-05-21T21:53:32.676Z,100692.91
2023-05-21T21:56:15.814Z,100786.59
2023-05-21T21:58:57.445Z,100790.09
2023-05-21T22:01:46.056Z,100826.34
2023-05-21T22:04:51.643Z,100825.47
2023-05-21T22:07:39.334Z,100768.88
2023-05-21T22:10:19.477Z,100796.22
2023-05-21T22:13:05.069Z,100674.25
2023-05-21T22:15:54.635Z,100603.59
2023-05-21T22:21:51.288Z,100708.53
2023-05-21T22:24:37.693Z,100666.19
2023-05-21T22:27:16.982Z,100769.59
2023-05-21T22:29:58.590Z,100711.22
2023-05-21T22:35:51.870Z,100819.06
2023-05-21T22:38:43.621Z,100854.38
2023-05-21T22:41:25.416Z,100849.97
2023-05-21T22:44:01.974Z,100733.22
2023-05-21T22:46:47.518Z,100854.31
2023-05-21T22:49:33.445Z,100786.22
2023-05-21T22:52:41.667Z,100670.41
2023-05-21T22:55:15.988Z,100848.06
2023-05-21T22:58:08.385Z,100652.50
2023-05-21T23:01:34.029Z,100834.63
2023-05-21T23:04:50.162Z,100681.53
2023-05-21T23:07:39.882Z,100734.59
2023-05-21T23:10:44.453Z,100738.97
2023-05-21T23:13:37.715Z,100663.72
2023-05-21T23:19:52.335Z,100664.53
2023-05-21T23:22:28.956Z,100769.81
2023-05-21T23:25:01.509Z,100875.06
2023-05-21T23:27:36.358Z,100734.38
2023-05-21T23:30:12.397Z,100849.13
2023-05-21T23:32:53.298Z,100787.25
2023-05-21T23:35:35.734Z,100728.78
2023-05-21T23:38:36.277Z,100879.22
2023-05-21T23:41:50.987Z,100749.13
2023-05-21T23:44:25.200Z,100861.59
2023-05-21T23:47:01.799Z,100750.84
2023-05-21T23:49:52.334Z,100665.84
2023-05-21T23:52:41.728Z,100784.41
2023-05-21T23:55:43.581Z,100743.66
2023-05-21T23:58:13.869Z,100644.00
